sensor_id;sensor_type;location;lat;lon;timestamp;pressure;altitude;pressure_sealevel;temperature;humidity
59608;BME280;45426;44.726;10.390;2022-11-15T00:00:49;101043.16;;;8.49;100.00
59608;BME280;45426;44.726;10.390;2022-11-15T00:03:16;101043.38;;;8.89;100.00
59608;BME280;45426;44.726;10.390;2022-11-15T00:05:42;101043.00;;;9.41;100.00
59608;BME280;45426;44.726;10.390;2022-11-15T00:08:07;101029.66;;;9.53;100.00
59608;BME280;45426;44.726;10.390;2022-11-15T00:10:33;101041.75;;;9.47;100.00
59608;BME280;45426;44.726;10.390;2022-11-15T00:12:58;101034.66;;;9.60;100.00
59608;BME280;45426;44.726;10.390;2022-11-15T00:15:24;101031.63;;;9.62;100.00
59608;BME280;45426;44.726;10.390;2022-11-15T00:17:50;101030.66;;;9.58;100.00
59608;BME280;45426;44.726;10.390;2022-11-15T00:20:17;101024.03;;;9.19;100.00
59608;BME280;45426;44.726;10.390;2022-11-15T00:22:42;101024.31;;;8.81;100.00
59608;BME280;45426;44.726;10.390;2022-11-15T00:25:08;101025.31;;;8.48;100.00
59608;BME280;45426;44.726;10.390;2022-11-15T00:27:33;101034.34;;;8.44;100.00
59608;BME280;45426;44.726;10.390;2022-11-15T00:30:00;101027.50;;;8.46;100.00
59608;BME280;45426;44.726;10.390;2022-11-15T00:32:25;101026.78;;;8.41;100.00
59608;BME280;45426;44.726;10.390;2022-11-15T00:34:51;101025.66;;;9.06;100.00
59608;BME280;45426;44.726;10.390;2022-11-15T00:37:16;101011.81;;;9.07;100.00
59608;BME280;45426;44.726;10.390;2022-11-15T00:39:42;101016.75;;;9.28;100.00
59608;BME280;45426;44.726;10.390;2022-11-15T00:42:07;101009.41;;;9.06;100.00
59608;BME280;45426;44.726;10.390;2022-11-15T00:44:32;101015.59;;;9.51;100.00
59608;BME280;45426;44.726;10.390;2022-11-15T00:46:58;101019.06;;;9.43;100.00
59608;BME280;45426;44.726;10.390;2022-11-15T00:49:24;101023.06;;;9.46;100.00
59608;BME280;45426;44.726;10.390;2022-11-15T00:51:50;101027.41;;;9.47;100.00
59608;BME280;45426;44.726;10.390;2022-11-15T00:54:15;101020.66;;;9.44;100.00
59608;BME280;45426;44.726;10.390;2022-11-15T00:56:40;101034.34;;;8.94;100.00
59608;BME280;45426;44.726;10.390;2022-11-15T00:59:06;101020.81;;;8.80;100.00
59608;BME280;45426;44.726;10.390;2022-11-15T01:01:31;101020.81;;;8.80;100.00
59608;BME280;45426;44.726;10.390;2022-11-15T01:03:57;101018.09;;;9.17;100.00
59608;BME280;45426;44.726;10.390;2022-11-15T01:06:22;101004.88;;;9.01;100.00
59608;BME280;45426;44.726;10.390;2022-11-15T01:08:48;101016.75;;;8.41;100.00
59608;BME280;45426;44.726;10.390;2022-11-15T01:11:13;101009.19;;;8.80;100.00
59608;BME280;45426;44.726;10.390;2022-11-15T01:13:39;101016.19;;;9.17;100.00
59608;BME280;45426;44.726;10.390;2022-11-15T01:16:14;101010.19;;;9.29;100.00
59608;BME280;45426;44.726;10.390;2022-11-15T01:18:40;101001.19;;;9.20;100.00
59608;BME280;45426;44.726;10.390;2022-11-15T01:21:10;101000.97;;;9.30;100.00
59608;BME280;45426;44.726;10.390;2022-11-15T01:23:37;101008.16;;;8.53;100.00
59608;BME280;45426;44.726;10.390;2022-11-15T01:26:04;101020.38;;;8.09;100.00
59608;BME280;45426;44.726;10.390;2022-11-15T01:28:35;101010.81;;;9.03;100.00
59608;BME280;45426;44.726;10.390;2022-11-15T01:31:03;101001.03;;;9.16;100.00
59608;BME280;45426;44.726;10.390;2022-11-15T01:33:30;100995.19;;;9.23;100.00
59608;BME280;45426;44.726;10.390;2022-11-15T01:35:56;100992.97;;;9.02;100.00
59608;BME280;45426;44.726;10.390;2022-11-15T01:38:22;100986.06;;;9.19;100.00
59608;BME280;45426;44.726;10.390;2022-11-15T01:40:48;100997.00;;;8.41;100.00
59608;BME280;45426;44.726;10.390;2022-11-15T01:43:28;100994.31;;;8.27;100.00
59608;BME280;45426;44.726;10.390;2022-11-15T01:46:36;100985.56;;;8.94;100.00
59608;BME280;45426;44.726;10.390;2022-11-15T01:49:14;100978.72;;;9.19;100.00
59608;BME280;45426;44.726;10.390;2022-11-15T01:51:41;100978.28;;;9.03;100.00
59608;BME280;45426;44.726;10.390;2022-11-15T01:54:16;100968.19;;;8.95;100.00
59608;BME280;45426;44.726;10.390;2022-11-15T01:56:48;100968.88;;;8.42;100.00
59608;BME280;45426;44.726;10.390;2022-11-15T01:59:15;100974.00;;;8.15;100.00
59608;BME280;45426;44.726;10.390;2022-11-15T02:01:41;100974.19;;;8.69;100.00
59608;BME280;45426;44.726;10.390;2022-11-15T02:06:36;100975.44;;;8.35;100.00
59608;BME280;45426;44.726;10.390;2022-11-15T02:09:03;100962.69;;;8.86;100.00
59608;BME280;45426;44.726;10.390;2022-11-15T02:11:28;100960.63;;;8.83;100.00
59608;BME280;45426;44.726;10.390;2022-11-15T02:13:55;100953.09;;;9.03;100.00
59608;BME280;45426;44.726;10.390;2022-11-15T02:16:32;100956.78;;;9.07;100.00
59608;BME280;45426;44.726;10.390;2022-11-15T02:30:04;100930.59;;;9.25;100.00
59608;BME280;45426;44.726;10.390;2022-11-15T02:32:42;100927.69;;;8.40;100.00
59608;BME280;45426;44.726;10.390;2022-11-15T02:38:03;100914.41;;;8.29;100.00
59608;BME280;45426;44.726;10.390;2022-11-15T02:43:12;100914.47;;;8.52;100.00
59608;BME280;45426;44.726;10.390;2022-11-15T02:46:13;100907.63;;;9.22;100.00
59608;BME280;45426;44.726;10.390;2022-11-15T02:48:41;100900.53;;;9.44;100.00
59608;BME280;45426;44.726;10.390;2022-11-15T02:51:07;100911.75;;;9.20;100.00
59608;BME280;45426;44.726;10.390;2022-11-15T02:53:33;100918.81;;;8.76;100.00
59608;BME280;45426;44.726;10.390;2022-11-15T02:55:58;100917.75;;;9.39;100.00
59608;BME280;45426;44.726;10.390;2022-11-15T02:58:48;100900.63;;;9.70;100.00
59608;BME280;45426;44.726;10.390;2022-11-15T03:06:59;100909.72;;;9.65;100.00
59608;BME280;45426;44.726;10.390;2022-11-15T03:09:33;100911.06;;;9.85;100.00
59608;BME280;45426;44.726;10.390;2022-11-15T03:12:23;100895.78;;;10.07;100.00
59608;BME280;45426;44.726;10.390;2022-11-15T03:14:59;100891.28;;;9.94;100.00
59608;BME280;45426;44.726;10.390;2022-11-15T03:17:32;100892.25;;;9.98;100.00
59608;BME280;45426;44.726;10.390;2022-11-15T03:20:01;100901.06;;;10.12;100.00
59608;BME280;45426;44.726;10.390;2022-11-15T03:22:32;100902.06;;;10.34;100.00
59608;BME280;45426;44.726;10.390;2022-11-15T03:25:02;100894.06;;;10.20;100.00
59608;BME280;45426;44.726;10.390;2022-11-15T03:27:34;100901.50;;;9.48;100.00
59608;BME280;45426;44.726;10.390;2022-11-15T03:30:05;100919.78;;;9.02;100.00
59608;BME280;45426;44.726;10.390;2022-11-15T03:32:38;100919.03;;;8.65;100.00
59608;BME280;45426;44.726;10.390;2022-11-15T03:35:07;100902.03;;;9.59;100.00
59608;BME280;45426;44.726;10.390;2022-11-15T03:37:38;100905.78;;;9.40;100.00
59608;BME280;45426;44.726;10.390;2022-11-15T03:40:06;100899.31;;;10.16;100.00
59608;BME280;45426;44.726;10.390;2022-11-15T03:42:46;100903.63;;;10.08;100.00
59608;BME280;45426;44.726;10.390;2022-11-15T03:45:25;100910.13;;;9.90;100.00
59608;BME280;45426;44.726;10.390;2022-11-15T03:47:58;100909.00;;;9.91;100.00
59608;BME280;45426;44.726;10.390;2022-11-15T03:50:25;100910.16;;;9.19;100.00
59608;BME280;45426;44.726;10.390;2022-11-15T03:52:54;100902.50;;;9.21;100.00
59608;BME280;45426;44.726;10.390;2022-11-15T03:55:20;100904.63;;;9.32;100.00
59608;BME280;45426;44.726;10.390;2022-11-15T03:57:49;100914.69;;;9.72;100.00
59608;BME280;45426;44.726;10.390;2022-11-15T04:00:15;100909.94;;;9.86;100.00
59608;BME280;45426;44.726;10.390;2022-11-15T04:02:41;100885.44;;;10.18;100.00
59608;BME280;45426;44.726;10.390;2022-11-15T04:05:07;100884.66;;;10.43;100.00
59608;BME280;45426;44.726;10.390;2022-11-15T04:07:32;100886.28;;;10.53;100.00
59608;BME280;45426;44.726;10.390;2022-11-15T04:09:58;100885.47;;;10.44;100.00
59608;BME280;45426;44.726;10.390;2022-11-15T04:12:33;100877.47;;;10.56;100.00
59608;BME280;45426;44.726;10.390;2022-11-15T04:15:02;100878.38;;;10.17;100.00
59608;BME280;45426;44.726;10.390;2022-11-15T04:17:41;100888.28;;;10.13;100.00
59608;BME280;45426;44.726;10.390;2022-11-15T04:20:28;100878.97;;;9.79;100.00
59608;BME280;45426;44.726;10.390;2022-11-15T04:23:17;100879.72;;;9.62;100.00
59608;BME280;45426;44.726;10.390;2022-11-15T04:26:05;100886.88;;;9.58;100.00
59608;BME280;45426;44.726;10.390;2022-11-15T04:28:31;100877.84;;;9.71;100.00
59608;BME280;45426;44.726;10.390;2022-11-15T04:30:56;100875.28;;;9.83;100.00
59608;BME280;45426;44.726;10.390;2022-11-15T04:33:22;100881.03;;;9.73;100.00
59608;BME280;45426;44.726;10.390;2022-11-15T04:35:48;100882.22;;;10.07;100.00
59608;BME280;45426;44.726;10.390;2022-11-15T04:38:34;100883.03;;;10.16;100.00
59608;BME280;45426;44.726;10.390;2022-11-15T04:41:00;100872.78;;;10.13;100.00
59608;BME280;45426;44.726;10.390;2022-11-15T04:43:25;100865.47;;;10.40;100.00
59608;BME280;45426;44.726;10.390;2022-11-15T04:45:51;100859.69;;;10.06;100.00
59608;BME280;45426;44.726;10.390;2022-11-15T04:48:16;100869.09;;;10.00;100.00
59608;BME280;45426;44.726;10.390;2022-11-15T04:50:42;100871.84;;;10.26;100.00
59608;BME280;45426;44.726;10.390;2022-11-15T04:53:07;100853.16;;;10.16;100.00
59608;BME280;45426;44.726;10.390;2022-11-15T04:55:32;100865.06;;;9.71;100.00
59608;BME280;45426;44.726;10.390;2022-11-15T04:58:02;100867.72;;;9.54;100.00
59608;BME280;45426;44.726;10.390;2022-11-15T05:00:30;100858.38;;;9.86;100.00
59608;BME280;45426;44.726;10.390;2022-11-15T05:02:56;100865.25;;;9.84;100.00
59608;BME280;45426;44.726;10.390;2022-11-15T05:05:41;100870.91;;;9.56;100.00
59608;BME280;45426;44.726;10.390;2022-11-15T05:08:06;100871.25;;;9.63;100.00
59608;BME280;45426;44.726;10.390;2022-11-15T05:10:31;100856.75;;;9.68;100.00
59608;BME280;45426;44.726;10.390;2022-11-15T05:12:57;100854.09;;;9.94;100.00
59608;BME280;45426;44.726;10.390;2022-11-15T05:15:22;100846.59;;;10.08;100.00
59608;BME280;45426;44.726;10.390;2022-11-15T05:17:48;100840.38;;;10.25;100.00
59608;BME280;45426;44.726;10.390;2022-11-15T05:20:13;100844.53;;;10.05;100.00
59608;BME280;45426;44.726;10.390;2022-11-15T05:22:39;100850.38;;;9.81;100.00
59608;BME280;45426;44.726;10.390;2022-11-15T05:25:05;100847.06;;;10.02;100.00
59608;BME280;45426;44.726;10.390;2022-11-15T05:27:31;100842.72;;;9.83;100.00
59608;BME280;45426;44.726;10.390;2022-11-15T05:29:56;100840.50;;;9.94;100.00
59608;BME280;45426;44.726;10.390;2022-11-15T05:32:21;100847.34;;;9.74;100.00
59608;BME280;45426;44.726;10.390;2022-11-15T05:34:47;100844.34;;;9.84;100.00
59608;BME280;45426;44.726;10.390;2022-11-15T05:37:13;100844.19;;;10.07;100.00
59608;BME280;45426;44.726;10.390;2022-11-15T05:39:39;100841.81;;;10.49;100.00
59608;BME280;45426;44.726;10.390;2022-11-15T05:42:10;100836.22;;;10.28;100.00
59608;BME280;45426;44.726;10.390;2022-11-15T05:44:37;100839.19;;;10.96;100.00
59608;BME280;45426;44.726;10.390;2022-11-15T05:47:08;100836.34;;;9.97;100.00
59608;BME280;45426;44.726;10.390;2022-11-15T05:49:38;100838.44;;;10.00;100.00
59608;BME280;45426;44.726;10.390;2022-11-15T05:52:07;100840.56;;;10.55;100.00
59608;BME280;45426;44.726;10.390;2022-11-15T05:54:34;100842.25;;;10.86;100.00
59608;BME280;45426;44.726;10.390;2022-11-15T05:57:00;100845.47;;;9.92;100.00
59608;BME280;45426;44.726;10.390;2022-11-15T05:59:29;100845.03;;;10.25;100.00
59608;BME280;45426;44.726;10.390;2022-11-15T06:01:55;100841.50;;;10.07;100.00
59608;BME280;45426;44.726;10.390;2022-11-15T06:04:21;100845.78;;;9.99;100.00
59608;BME280;45426;44.726;10.390;2022-11-15T06:06:46;100842.78;;;10.44;100.00
59608;BME280;45426;44.726;10.390;2022-11-15T06:09:12;100844.41;;;10.37;100.00
59608;BME280;45426;44.726;10.390;2022-11-15T06:11:37;100844.22;;;10.51;100.00
59608;BME280;45426;44.726;10.390;2022-11-15T06:14:02;100838.16;;;10.27;100.00
59608;BME280;45426;44.726;10.390;2022-11-15T06:16:28;100840.41;;;10.52;100.00
59608;BME280;45426;44.726;10.390;2022-11-15T06:18:53;100842.44;;;10.02;100.00
59608;BME280;45426;44.726;10.390;2022-11-15T06:21:19;100839.41;;;10.04;100.00
59608;BME280;45426;44.726;10.390;2022-11-15T06:23:44;100844.19;;;9.98;100.00
59608;BME280;45426;44.726;10.390;2022-11-15T06:26:10;100844.16;;;9.81;100.00
59608;BME280;45426;44.726;10.390;2022-11-15T06:28:35;100841.31;;;9.86;100.00
59608;BME280;45426;44.726;10.390;2022-11-15T06:31:06;100859.03;;;10.09;100.00
59608;BME280;45426;44.726;10.390;2022-11-15T06:33:32;100857.31;;;10.05;100.00
59608;BME280;45426;44.726;10.390;2022-11-15T06:36:04;100855.72;;;10.56;100.00
59608;BME280;45426;44.726;10.390;2022-11-15T06:38:30;100842.25;;;10.77;100.00
59608;BME280;45426;44.726;10.390;2022-11-15T06:41:04;100838.31;;;10.57;100.00
59608;BME280;45426;44.726;10.390;2022-11-15T06:43:30;100859.38;;;9.99;100.00
59608;BME280;45426;44.726;10.390;2022-11-15T06:45:58;100864.63;;;9.96;100.00
59608;BME280;45426;44.726;10.390;2022-11-15T06:48:24;100858.88;;;10.06;100.00
59608;BME280;45426;44.726;10.390;2022-11-15T06:50:51;100862.53;;;9.93;100.00
59608;BME280;45426;44.726;10.390;2022-11-15T06:53:17;100859.41;;;10.34;100.00
59608;BME280;45426;44.726;10.390;2022-11-15T06:55:43;100867.66;;;10.11;100.00
59608;BME280;45426;44.726;10.390;2022-11-15T06:58:08;100866.72;;;9.99;100.00
59608;BME280;45426;44.726;10.390;2022-11-15T07:00:33;100866.84;;;9.85;100.00
59608;BME280;45426;44.726;10.390;2022-11-15T07:03:00;100864.47;;;10.09;100.00
59608;BME280;45426;44.726;10.390;2022-11-15T07:05:26;100862.88;;;10.00;100.00
59608;BME280;45426;44.726;10.390;2022-11-15T07:07:56;100859.38;;;9.99;100.00
59608;BME280;45426;44.726;10.390;2022-11-15T07:10:22;100867.81;;;9.98;100.00
59608;BME280;45426;44.726;10.390;2022-11-15T07:12:50;100870.69;;;9.93;100.00
59608;BME280;45426;44.726;10.390;2022-11-15T07:15:16;100871.34;;;9.89;100.00
59608;BME280;45426;44.726;10.390;2022-11-15T07:17:42;100880.72;;;9.83;100.00
59608;BME280;45426;44.726;10.390;2022-11-15T07:20:08;100871.00;;;10.00;100.00
59608;BME280;45426;44.726;10.390;2022-11-15T07:22:33;100872.66;;;10.36;100.00
59608;BME280;45426;44.726;10.390;2022-11-15T07:24:59;100868.00;;;10.10;100.00
59608;BME280;45426;44.726;10.390;2022-11-15T07:27:24;100863.91;;;10.47;100.00
59608;BME280;45426;44.726;10.390;2022-11-15T07:29:50;100859.75;;;10.33;100.00
59608;BME280;45426;44.726;10.390;2022-11-15T07:32:15;100863.72;;;10.35;100.00
59608;BME280;45426;44.726;10.390;2022-11-15T07:34:40;100859.72;;;10.41;100.00
59608;BME280;45426;44.726;10.390;2022-11-15T07:37:06;100854.50;;;11.10;100.00
59608;BME280;45426;44.726;10.390;2022-11-15T07:39:31;100854.28;;;10.50;100.00
59608;BME280;45426;44.726;10.390;2022-11-15T07:41:57;100855.09;;;10.59;100.00
59608;BME280;45426;44.726;10.390;2022-11-15T07:44:41;100848.88;;;10.33;100.00
59608;BME280;45426;44.726;10.390;2022-11-15T07:47:06;100851.69;;;10.88;100.00
59608;BME280;45426;44.726;10.390;2022-11-15T07:49:31;100845.91;;;10.90;100.00
59608;BME280;45426;44.726;10.390;2022-11-15T07:51:57;100848.59;;;11.07;100.00
59608;BME280;45426;44.726;10.390;2022-11-15T07:54:22;100836.94;;;10.98;100.00
59608;BME280;45426;44.726;10.390;2022-11-15T07:56:48;100836.34;;;10.84;100.00
59608;BME280;45426;44.726;10.390;2022-11-15T07:59:13;100839.84;;;10.93;100.00
59608;BME280;45426;44.726;10.390;2022-11-15T08:01:38;100841.59;;;10.89;100.00
59608;BME280;45426;44.726;10.390;2022-11-15T08:04:04;100846.88;;;10.94;100.00
59608;BME280;45426;44.726;10.390;2022-11-15T08:06:29;100843.84;;;10.87;100.00
59608;BME280;45426;44.726;10.390;2022-11-15T08:08:55;100845.72;;;11.42;100.00
59608;BME280;45426;44.726;10.390;2022-11-15T08:11:20;100832.94;;;11.43;100.00
59608;BME280;45426;44.726;10.390;2022-11-15T08:13:46;100835.72;;;11.85;100.00
59608;BME280;45426;44.726;10.390;2022-11-15T08:16:11;100833.44;;;11.96;100.00
59608;BME280;45426;44.726;10.390;2022-11-15T08:18:37;100832.06;;;11.90;100.00
59608;BME280;45426;44.726;10.390;2022-11-15T08:21:03;100833.53;;;11.78;100.00
59608;BME280;45426;44.726;10.390;2022-11-15T08:23:29;100831.63;;;11.11;100.00
59608;BME280;45426;44.726;10.390;2022-11-15T08:26:02;100840.09;;;11.48;100.00
59608;BME280;45426;44.726;10.390;2022-11-15T08:28:29;100839.72;;;11.28;100.00
59608;BME280;45426;44.726;10.390;2022-11-15T08:30:55;100841.97;;;11.26;100.00
59608;BME280;45426;44.726;10.390;2022-11-15T08:33:20;100834.91;;;11.34;100.00
59608;BME280;45426;44.726;10.390;2022-11-15T08:35:46;100830.84;;;11.99;100.00
59608;BME280;45426;44.726;10.390;2022-11-15T08:38:11;100831.91;;;12.07;100.00
59608;BME280;45426;44.726;10.390;2022-11-15T08:40:37;100832.22;;;11.84;100.00
59608;BME280;45426;44.726;10.390;2022-11-15T08:43:03;100831.06;;;11.85;100.00
59608;BME280;45426;44.726;10.390;2022-11-15T08:45:29;100826.53;;;11.98;100.00
59608;BME280;45426;44.726;10.390;2022-11-15T08:47:55;100825.09;;;12.34;100.00
59608;BME280;45426;44.726;10.390;2022-11-15T08:50:21;100824.94;;;12.18;100.00
59608;BME280;45426;44.726;10.390;2022-11-15T08:52:46;100822.56;;;11.87;100.00
59608;BME280;45426;44.726;10.390;2022-11-15T08:55:13;100815.09;;;12.26;100.00
59608;BME280;45426;44.726;10.390;2022-11-15T08:57:39;100813.19;;;11.55;100.00
59608;BME280;45426;44.726;10.390;2022-11-15T09:00:05;100812.38;;;12.26;100.00
59608;BME280;45426;44.726;10.390;2022-11-15T09:02:31;100811.38;;;12.64;100.00
59608;BME280;45426;44.726;10.390;2022-11-15T09:04:56;100807.19;;;12.33;100.00
59608;BME280;45426;44.726;10.390;2022-11-15T09:07:22;100814.38;;;12.17;100.00
59608;BME280;45426;44.726;10.390;2022-11-15T09:09:47;100811.72;;;12.62;100.00
59608;BME280;45426;44.726;10.390;2022-11-15T09:12:13;100810.44;;;12.60;100.00
59608;BME280;45426;44.726;10.390;2022-11-15T09:14:38;100814.09;;;12.64;100.00
59608;BME280;45426;44.726;10.390;2022-11-15T09:17:07;100817.97;;;12.09;100.00
59608;BME280;45426;44.726;10.390;2022-11-15T09:19:33;100812.63;;;11.91;100.00
59608;BME280;45426;44.726;10.390;2022-11-15T09:21:59;100819.22;;;11.90;100.00
59608;BME280;45426;44.726;10.390;2022-11-15T09:24:24;100817.97;;;12.09;100.00
59608;BME280;45426;44.726;10.390;2022-11-15T09:26:51;100820.72;;;11.79;100.00
59608;BME280;45426;44.726;10.390;2022-11-15T09:29:17;100814.16;;;11.50;100.00
59608;BME280;45426;44.726;10.390;2022-11-15T09:31:42;100814.22;;;11.71;100.00
59608;BME280;45426;44.726;10.390;2022-11-15T09:34:08;100813.09;;;12.35;100.00
59608;BME280;45426;44.726;10.390;2022-11-15T09:36:34;100810.88;;;12.50;100.00
59608;BME280;45426;44.726;10.390;2022-11-15T09:38:59;100802.66;;;12.71;100.00
59608;BME280;45426;44.726;10.390;2022-11-15T09:49:54;100799.97;;;12.83;100.00
59608;BME280;45426;44.726;10.390;2022-11-15T09:52:22;100798.91;;;12.75;100.00
59608;BME280;45426;44.726;10.390;2022-11-15T09:54:50;100804.88;;;12.56;100.00
59608;BME280;45426;44.726;10.390;2022-11-15T09:57:18;100787.41;;;12.24;100.00
59608;BME280;45426;44.726;10.390;2022-11-15T09:59:55;100791.41;;;12.72;100.00
59608;BME280;45426;44.726;10.390;2022-11-15T10:05:16;100789.06;;;12.95;100.00
59608;BME280;45426;44.726;10.390;2022-11-15T10:08:03;100783.97;;;12.60;100.00
59608;BME280;45426;44.726;10.390;2022-11-15T10:10:47;100772.56;;;12.79;100.00
59608;BME280;45426;44.726;10.390;2022-11-15T10:13:19;100763.63;;;12.12;100.00
59608;BME280;45426;44.726;10.390;2022-11-15T10:15:47;100764.94;;;12.06;100.00
59608;BME280;45426;44.726;10.390;2022-11-15T10:18:35;100766.25;;;12.42;100.00
59608;BME280;45426;44.726;10.390;2022-11-15T10:21:41;100771.03;;;12.57;100.00
59608;BME280;45426;44.726;10.390;2022-11-15T10:24:13;100767.59;;;13.06;100.00
59608;BME280;45426;44.726;10.390;2022-11-15T10:26:47;100762.22;;;13.22;100.00
59608;BME280;45426;44.726;10.390;2022-11-15T10:29:18;100754.41;;;13.33;100.00
59608;BME280;45426;44.726;10.390;2022-11-15T10:31:44;100738.16;;;13.12;100.00
59608;BME280;45426;44.726;10.390;2022-11-15T10:34:20;100731.13;;;13.35;100.00
59608;BME280;45426;44.726;10.390;2022-11-15T10:36:57;100735.09;;;13.13;100.00
59608;BME280;45426;44.726;10.390;2022-11-15T10:39:24;100743.38;;;13.17;100.00
59608;BME280;45426;44.726;10.390;2022-11-15T10:41:50;100732.81;;;13.40;100.00
59608;BME280;45426;44.726;10.390;2022-11-15T10:44:31;100726.78;;;13.10;100.00
59608;BME280;45426;44.726;10.390;2022-11-15T10:49:30;100717.13;;;13.25;100.00
59608;BME280;45426;44.726;10.390;2022-11-15T10:54:52;100706.66;;;13.39;100.00
59608;BME280;45426;44.726;10.390;2022-11-15T10:57:22;100695.88;;;13.30;100.00
59608;BME280;45426;44.726;10.390;2022-11-15T10:59:54;100697.22;;;13.49;100.00
59608;BME280;45426;44.726;10.390;2022-11-15T11:02:38;100687.22;;;13.40;100.00
59608;BME280;45426;44.726;10.390;2022-11-15T11:05:20;100698.91;;;13.29;100.00
59608;BME280;45426;44.726;10.390;2022-11-15T11:07:56;100692.47;;;13.21;100.00
59608;BME280;45426;44.726;10.390;2022-11-15T11:10:22;100690.56;;;13.09;100.00
59608;BME280;45426;44.726;10.390;2022-11-15T11:12:47;100672.81;;;13.15;100.00
59608;BME280;45426;44.726;10.390;2022-11-15T11:15:14;100672.25;;;12.97;100.00
59608;BME280;45426;44.726;10.390;2022-11-15T11:20:29;100671.69;;;12.79;100.00
59608;BME280;45426;44.726;10.390;2022-11-15T11:25:41;100665.72;;;13.27;100.00
59608;BME280;45426;44.726;10.390;2022-11-15T11:31:18;100661.91;;;13.03;100.00
59608;BME280;45426;44.726;10.390;2022-11-15T11:34:04;100663.72;;;12.50;100.00
59608;BME280;45426;44.726;10.390;2022-11-15T11:36:49;100664.88;;;12.86;100.00
59608;BME280;45426;44.726;10.390;2022-11-15T11:47:09;100631.94;;;12.91;100.00
59608;BME280;45426;44.726;10.390;2022-11-15T11:49:50;100636.28;;;13.20;100.00
59608;BME280;45426;44.726;10.390;2022-11-15T11:52:32;100629.91;;;13.40;100.00
59608;BME280;45426;44.726;10.390;2022-11-15T11:55:16;100634.50;;;13.12;100.00
59608;BME280;45426;44.726;10.390;2022-11-15T12:00:19;100624.94;;;13.18;100.00
59608;BME280;45426;44.726;10.390;2022-11-15T12:05:34;100624.13;;;13.30;100.00
59608;BME280;45426;44.726;10.390;2022-11-15T12:10:52;100625.28;;;13.16;100.00
59608;BME280;45426;44.726;10.390;2022-11-15T12:13:22;100624.94;;;13.18;100.00
59608;BME280;45426;44.726;10.390;2022-11-15T12:16:18;100614.25;;;13.13;100.00
59608;BME280;45426;44.726;10.390;2022-11-15T12:18:50;100614.19;;;13.09;100.00
59608;BME280;45426;44.726;10.390;2022-11-15T12:21:35;100610.84;;;13.16;100.00
59608;BME280;45426;44.726;10.390;2022-11-15T12:27:20;100602.91;;;13.11;100.00
59608;BME280;45426;44.726;10.390;2022-11-15T12:29:54;100590.41;;;13.10;100.00
59608;BME280;45426;44.726;10.390;2022-11-15T12:32:33;100587.28;;;13.36;100.00
59608;BME280;45426;44.726;10.390;2022-11-15T12:35:00;100579.94;;;13.12;100.00
59608;BME280;45426;44.726;10.390;2022-11-15T12:42:40;100563.38;;;13.05;100.00
59608;BME280;45426;44.726;10.390;2022-11-15T12:47:49;100560.06;;;13.11;100.00
59608;BME280;45426;44.726;10.390;2022-11-15T12:50:56;100549.88;;;12.96;100.00
59608;BME280;45426;44.726;10.390;2022-11-15T12:58:57;100540.88;;;13.08;100.00
59608;BME280;45426;44.726;10.390;2022-11-15T13:07:04;100533.88;;;12.94;100.00
59608;BME280;45426;44.726;10.390;2022-11-15T13:12:09;100528.97;;;13.00;100.00
59608;BME280;45426;44.726;10.390;2022-11-15T13:14:54;100530.50;;;13.13;100.00
59608;BME280;45426;44.726;10.390;2022-11-15T13:22:45;100511.75;;;12.84;100.00
59608;BME280;45426;44.726;10.390;2022-11-15T13:28:21;100511.91;;;13.03;100.00
59608;BME280;45426;44.726;10.390;2022-11-15T13:30:54;100514.50;;;12.99;100.00
59608;BME280;45426;44.726;10.390;2022-11-15T13:33:27;100503.81;;;12.66;100.00
59608;BME280;45426;44.726;10.390;2022-11-15T13:35:57;100507.41;;;12.82;100.00
59608;BME280;45426;44.726;10.390;2022-11-15T13:40:49;100503.28;;;13.01;100.00
59608;BME280;45426;44.726;10.390;2022-11-15T13:43:34;100503.13;;;12.69;100.00
59608;BME280;45426;44.726;10.390;2022-11-15T13:48:35;100505.78;;;12.53;100.00
59608;BME280;45426;44.726;10.390;2022-11-15T13:51:21;100505.53;;;12.71;100.00
59608;BME280;45426;44.726;10.390;2022-11-15T13:54:02;100498.56;;;12.86;100.00
59608;BME280;45426;44.726;10.390;2022-11-15T13:56:29;100500.34;;;12.94;100.00
59608;BME280;45426;44.726;10.390;2022-11-15T13:58:56;100509.56;;;12.89;100.00
59608;BME280;45426;44.726;10.390;2022-11-15T14:01:22;100502.28;;;12.93;100.00
59608;BME280;45426;44.726;10.390;2022-11-15T14:03:54;100497.69;;;12.69;100.00
59608;BME280;45426;44.726;10.390;2022-11-15T14:06:23;100498.72;;;12.65;100.00
59608;BME280;45426;44.726;10.390;2022-11-15T14:09:42;100493.06;;;12.45;100.00
59608;BME280;45426;44.726;10.390;2022-11-15T14:11:53;100494.72;;;12.74;100.00
59608;BME280;45426;44.726;10.390;2022-11-15T14:14:24;100499.66;;;12.32;100.00
59608;BME280;45426;44.726;10.390;2022-11-15T14:16:52;100502.75;;;12.42;100.00
59608;BME280;45426;44.726;10.390;2022-11-15T14:22:19;100485.28;;;12.72;100.00
59608;BME280;45426;44.726;10.390;2022-11-15T14:27:38;100483.28;;;12.69;100.00
59608;BME280;45426;44.726;10.390;2022-11-15T14:30:04;100486.94;;;12.48;100.00
59608;BME280;45426;44.726;10.390;2022-11-15T14:32:45;100488.53;;;12.49;100.00
59608;BME280;45426;44.726;10.390;2022-11-15T14:35:18;100491.22;;;12.61;100.00